sensor_id;sensor_type;location;lat;lon;timestamp;P1;durP1;ratioP1;P2;durP2;ratioP2
23642;SDS011;11998;55.788;37.572;2022-09-21T00:00:05;10.77;;;8.07;;
23642;SDS011;11998;55.788;37.572;2022-09-21T00:01:14;13.23;;;8.60;;
23642;SDS011;11998;55.788;37.572;2022-09-21T00:02:17;11.00;;;8.33;;
23642;SDS011;11998;55.788;37.572;2022-09-21T00:03:18;13.87;;;8.40;;
23642;SDS011;11998;55.788;37.572;2022-09-21T00:04:18;10.97;;;8.13;;
23642;SDS011;11998;55.788;37.572;2022-09-21T00:05:19;9.30;;;8.30;;
23642;SDS011;11998;55.788;37.572;2022-09-21T00:06:20;12.87;;;7.90;;
23642;SDS011;11998;55.788;37.572;2022-09-21T00:07:21;12.10;;;8.20;;
23642;SDS011;11998;55.788;37.572;2022-09-21T00:08:22;11.27;;;8.23;;
23642;SDS011;11998;55.788;37.572;2022-09-21T00:09:22;11.83;;;8.40;;
23642;SDS011;11998;55.788;37.572;2022-09-21T00:10:23;11.60;;;8.33;;
23642;SDS011;11998;55.788;37.572;2022-09-21T00:11:25;13.10;;;8.00;;
23642;SDS011;11998;55.788;37.572;2022-09-21T00:12:27;9.53;;;8.03;;
23642;SDS011;11998;55.788;37.572;2022-09-21T00:13:30;11.93;;;7.60;;
23642;SDS011;11998;55.788;37.572;2022-09-21T00:14:32;111.30;;;94.20;;
23642;SDS011;11998;55.788;37.572;2022-09-21T00:15:33;64.23;;;54.47;;
23642;SDS011;11998;55.788;37.572;2022-09-21T00:16:33;30.93;;;27.53;;
23642;SDS011;11998;55.788;37.572;2022-09-21T00:17:34;14.73;;;11.07;;
23642;SDS011;11998;55.788;37.572;2022-09-21T00:18:36;16.53;;;13.40;;
23642;SDS011;11998;55.788;37.572;2022-09-21T00:19:36;9.77;;;8.10;;
23642;SDS011;11998;55.788;37.572;2022-09-21T00:20:39;11.43;;;8.20;;
23642;SDS011;11998;55.788;37.572;2022-09-21T00:21:40;9.07;;;7.57;;
23642;SDS011;11998;55.788;37.572;2022-09-21T00:22:41;11.33;;;7.60;;
23642;SDS011;11998;55.788;37.572;2022-09-21T00:23:42;10.10;;;7.83;;
23642;SDS011;11998;55.788;37.572;2022-09-21T00:24:43;10.87;;;8.00;;
23642;SDS011;11998;55.788;37.572;2022-09-21T00:25:44;10.57;;;7.83;;
23642;SDS011;11998;55.788;37.572;2022-09-21T00:26:44;13.80;;;6.97;;
23642;SDS011;11998;55.788;37.572;2022-09-21T00:27:45;11.07;;;7.60;;
23642;SDS011;11998;55.788;37.572;2022-09-21T00:28:51;11.53;;;8.03;;
23642;SDS011;11998;55.788;37.572;2022-09-21T00:29:53;11.10;;;7.53;;
23642;SDS011;11998;55.788;37.572;2022-09-21T00:30:54;12.10;;;7.97;;
23642;SDS011;11998;55.788;37.572;2022-09-21T00:31:59;10.77;;;8.10;;
23642;SDS011;11998;55.788;37.572;2022-09-21T00:33:00;9.00;;;7.43;;
23642;SDS011;11998;55.788;37.572;2022-09-21T00:34:00;11.57;;;8.00;;
23642;SDS011;11998;55.788;37.572;2022-09-21T00:35:03;9.57;;;7.73;;
23642;SDS011;11998;55.788;37.572;2022-09-21T00:36:07;12.00;;;7.70;;
23642;SDS011;11998;55.788;37.572;2022-09-21T00:37:10;9.67;;;7.57;;
23642;SDS011;11998;55.788;37.572;2022-09-21T00:38:10;12.83;;;7.93;;
23642;SDS011;11998;55.788;37.572;2022-09-21T00:39:11;9.93;;;7.70;;
23642;SDS011;11998;55.788;37.572;2022-09-21T00:40:11;11.73;;;8.23;;
23642;SDS011;11998;55.788;37.572;2022-09-21T00:41:12;11.60;;;7.57;;
23642;SDS011;11998;55.788;37.572;2022-09-21T00:42:17;14.10;;;7.23;;
23642;SDS011;11998;55.788;37.572;2022-09-21T00:43:45;11.50;;;7.70;;
23642;SDS011;11998;55.788;37.572;2022-09-21T00:44:48;8.17;;;6.80;;
23642;SDS011;11998;55.788;37.572;2022-09-21T00:45:49;12.60;;;8.30;;
23642;SDS011;11998;55.788;37.572;2022-09-21T00:46:56;9.87;;;7.53;;
23642;SDS011;11998;55.788;37.572;2022-09-21T00:48:03;8.60;;;7.70;;
23642;SDS011;11998;55.788;37.572;2022-09-21T00:49:04;12.43;;;8.27;;
23642;SDS011;11998;55.788;37.572;2022-09-21T00:50:07;11.90;;;7.97;;
23642;SDS011;11998;55.788;37.572;2022-09-21T00:51:10;8.57;;;7.53;;
23642;SDS011;11998;55.788;37.572;2022-09-21T00:52:12;12.60;;;7.93;;
23642;SDS011;11998;55.788;37.572;2022-09-21T00:53:14;10.53;;;7.40;;
23642;SDS011;11998;55.788;37.572;2022-09-21T00:54:16;14.63;;;8.33;;
23642;SDS011;11998;55.788;37.572;2022-09-21T00:55:27;71.80;;;59.87;;
23642;SDS011;11998;55.788;37.572;2022-09-21T00:56:36;91.37;;;81.40;;
23642;SDS011;11998;55.788;37.572;2022-09-21T00:57:37;25.20;;;20.90;;
23642;SDS011;11998;55.788;37.572;2022-09-21T00:58:39;10.37;;;7.97;;
23642;SDS011;11998;55.788;37.572;2022-09-21T00:59:46;13.40;;;9.27;;
23642;SDS011;11998;55.788;37.572;2022-09-21T01:00:49;11.40;;;9.13;;
23642;SDS011;11998;55.788;37.572;2022-09-21T01:01:51;12.70;;;9.47;;
23642;SDS011;11998;55.788;37.572;2022-09-21T01:02:53;10.77;;;8.20;;
23642;SDS011;11998;55.788;37.572;2022-09-21T01:04:00;9.33;;;7.83;;
23642;SDS011;11998;55.788;37.572;2022-09-21T01:05:03;9.10;;;8.07;;
23642;SDS011;11998;55.788;37.572;2022-09-21T01:06:05;10.27;;;7.53;;
23642;SDS011;11998;55.788;37.572;2022-09-21T01:07:08;9.73;;;7.57;;
23642;SDS011;11998;55.788;37.572;2022-09-21T01:08:13;11.20;;;7.40;;
23642;SDS011;11998;55.788;37.572;2022-09-21T01:09:14;13.13;;;7.72;;
23642;SDS011;11998;55.788;37.572;2022-09-21T01:10:17;11.50;;;6.80;;
23642;SDS011;11998;55.788;37.572;2022-09-21T01:14:34;12.60;;;7.57;;
23642;SDS011;11998;55.788;37.572;2022-09-21T01:17:28;8.63;;;6.90;;
23642;SDS011;11998;55.788;37.572;2022-09-21T01:22:06;25.17;;;21.83;;
23642;SDS011;11998;55.788;37.572;2022-09-21T01:23:28;88.40;;;78.80;;
23642;SDS011;11998;55.788;37.572;2022-09-21T01:24:48;27.47;;;21.13;;
23642;SDS011;11998;55.788;37.572;2022-09-21T01:26:25;15.13;;;12.05;;
23642;SDS011;11998;55.788;37.572;2022-09-21T01:28:03;10.47;;;9.20;;
23642;SDS011;11998;55.788;37.572;2022-09-21T01:30:20;11.07;;;7.90;;
23642;SDS011;11998;55.788;37.572;2022-09-21T01:31:23;11.03;;;8.47;;
23642;SDS011;11998;55.788;37.572;2022-09-21T01:32:29;12.97;;;8.47;;
23642;SDS011;11998;55.788;37.572;2022-09-21T01:33:43;13.30;;;8.38;;
23642;SDS011;11998;55.788;37.572;2022-09-21T01:34:52;9.57;;;8.50;;
23642;SDS011;11998;55.788;37.572;2022-09-21T01:35:57;11.03;;;7.90;;
23642;SDS011;11998;55.788;37.572;2022-09-21T01:37:02;11.50;;;7.93;;
23642;SDS011;11998;55.788;37.572;2022-09-21T01:38:09;10.67;;;8.03;;
23642;SDS011;11998;55.788;37.572;2022-09-21T01:39:14;11.80;;;8.30;;
23642;SDS011;11998;55.788;37.572;2022-09-21T01:40:27;11.73;;;8.87;;
23642;SDS011;11998;55.788;37.572;2022-09-21T01:41:31;11.30;;;8.73;;
23642;SDS011;11998;55.788;37.572;2022-09-21T01:42:33;13.07;;;8.67;;
23642;SDS011;11998;55.788;37.572;2022-09-21T01:43:36;14.80;;;8.63;;
23642;SDS011;11998;55.788;37.572;2022-09-21T01:44:41;11.20;;;8.17;;
23642;SDS011;11998;55.788;37.572;2022-09-21T01:45:46;12.53;;;8.70;;
23642;SDS011;11998;55.788;37.572;2022-09-21T01:46:51;55.03;;;45.77;;
23642;SDS011;11998;55.788;37.572;2022-09-21T01:47:53;111.67;;;94.40;;
23642;SDS011;11998;55.788;37.572;2022-09-21T01:48:57;106.53;;;90.73;;
23642;SDS011;11998;55.788;37.572;2022-09-21T01:50:04;53.70;;;44.47;;
23642;SDS011;11998;55.788;37.572;2022-09-21T01:51:08;34.10;;;28.27;;
23642;SDS011;11998;55.788;37.572;2022-09-21T01:52:13;21.77;;;16.07;;
23642;SDS011;11998;55.788;37.572;2022-09-21T01:54:26;11.73;;;8.50;;
23642;SDS011;11998;55.788;37.572;2022-09-21T01:55:30;9.77;;;7.72;;
23642;SDS011;11998;55.788;37.572;2022-09-21T01:56:40;9.20;;;8.10;;
23642;SDS011;11998;55.788;37.572;2022-09-21T02:00:12;13.67;;;8.67;;
23642;SDS011;11998;55.788;37.572;2022-09-21T02:01:15;11.63;;;8.30;;
23642;SDS011;11998;55.788;37.572;2022-09-21T02:02:23;10.23;;;7.93;;
23642;SDS011;11998;55.788;37.572;2022-09-21T02:03:48;12.33;;;9.10;;
23642;SDS011;11998;55.788;37.572;2022-09-21T02:04:51;9.23;;;7.75;;
23642;SDS011;11998;55.788;37.572;2022-09-21T02:05:52;11.40;;;8.57;;
23642;SDS011;11998;55.788;37.572;2022-09-21T02:06:54;10.90;;;8.30;;
23642;SDS011;11998;55.788;37.572;2022-09-21T02:07:55;11.47;;;8.13;;
23642;SDS011;11998;55.788;37.572;2022-09-21T02:08:57;9.70;;;8.70;;
23642;SDS011;11998;55.788;37.572;2022-09-21T02:09:57;10.80;;;8.73;;
23642;SDS011;11998;55.788;37.572;2022-09-21T02:11:00;12.87;;;8.77;;
23642;SDS011;11998;55.788;37.572;2022-09-21T02:12:03;12.70;;;8.27;;
23642;SDS011;11998;55.788;37.572;2022-09-21T02:13:04;11.27;;;8.43;;
23642;SDS011;11998;55.788;37.572;2022-09-21T02:14:07;9.60;;;8.60;;
23642;SDS011;11998;55.788;37.572;2022-09-21T02:15:12;11.57;;;8.07;;
23642;SDS011;11998;55.788;37.572;2022-09-21T02:19:05;10.35;;;8.77;;
23642;SDS011;11998;55.788;37.572;2022-09-21T02:21:24;10.87;;;9.67;;
23642;SDS011;11998;55.788;37.572;2022-09-21T02:24:13;12.25;;;8.98;;
23642;SDS011;11998;55.788;37.572;2022-09-21T02:26:52;19.47;;;13.53;;
23642;SDS011;11998;55.788;37.572;2022-09-21T02:28:03;15.68;;;12.48;;
23642;SDS011;11998;55.788;37.572;2022-09-21T02:29:19;16.45;;;14.68;;
23642;SDS011;11998;55.788;37.572;2022-09-21T02:30:27;30.27;;;27.03;;
23642;SDS011;11998;55.788;37.572;2022-09-21T02:31:35;41.15;;;34.50;;
23642;SDS011;11998;55.788;37.572;2022-09-21T02:34:17;39.78;;;35.55;;
23642;SDS011;11998;55.788;37.572;2022-09-21T02:38:50;24.67;;;18.50;;
23642;SDS011;11998;55.788;37.572;2022-09-21T02:40:10;23.42;;;19.25;;
23642;SDS011;11998;55.788;37.572;2022-09-21T02:41:37;18.13;;;16.00;;
23642;SDS011;11998;55.788;37.572;2022-09-21T02:42:44;21.65;;;17.85;;
23642;SDS011;11998;55.788;37.572;2022-09-21T02:43:49;20.03;;;17.57;;
23642;SDS011;11998;55.788;37.572;2022-09-21T02:45:10;24.50;;;21.13;;
23642;SDS011;11998;55.788;37.572;2022-09-21T02:46:21;21.53;;;17.50;;
23642;SDS011;11998;55.788;37.572;2022-09-21T02:47:24;21.97;;;19.67;;
23642;SDS011;11998;55.788;37.572;2022-09-21T02:48:32;19.47;;;16.60;;
23642;SDS011;11998;55.788;37.572;2022-09-21T02:49:40;24.87;;;21.73;;
23642;SDS011;11998;55.788;37.572;2022-09-21T02:51:06;24.90;;;21.90;;
23642;SDS011;11998;55.788;37.572;2022-09-21T02:52:12;29.83;;;19.75;;
23642;SDS011;11998;55.788;37.572;2022-09-21T02:53:17;22.40;;;17.92;;
23642;SDS011;11998;55.788;37.572;2022-09-21T02:54:24;23.67;;;17.38;;
23642;SDS011;11998;55.788;37.572;2022-09-21T02:55:28;22.30;;;16.00;;
23642;SDS011;11998;55.788;37.572;2022-09-21T02:56:31;22.60;;;15.80;;
23642;SDS011;11998;55.788;37.572;2022-09-21T02:57:33;27.10;;;16.83;;
23642;SDS011;11998;55.788;37.572;2022-09-21T02:58:42;23.93;;;18.47;;
23642;SDS011;11998;55.788;37.572;2022-09-21T02:59:47;40.80;;;26.75;;
23642;SDS011;11998;55.788;37.572;2022-09-21T03:00:49;24.40;;;18.10;;
23642;SDS011;11998;55.788;37.572;2022-09-21T03:01:50;25.20;;;16.47;;
23642;SDS011;11998;55.788;37.572;2022-09-21T03:02:51;17.30;;;12.05;;
23642;SDS011;11998;55.788;37.572;2022-09-21T03:03:52;13.90;;;11.57;;
23642;SDS011;11998;55.788;37.572;2022-09-21T03:04:52;18.60;;;11.50;;
23642;SDS011;11998;55.788;37.572;2022-09-21T03:05:53;54.33;;;13.97;;
23642;SDS011;11998;55.788;37.572;2022-09-21T03:06:54;43.67;;;12.67;;
23642;SDS011;11998;55.788;37.572;2022-09-21T03:07:56;43.65;;;12.57;;
23642;SDS011;11998;55.788;37.572;2022-09-21T03:08:57;29.77;;;10.75;;
23642;SDS011;11998;55.788;37.572;2022-09-21T03:09:58;31.77;;;10.33;;
23642;SDS011;11998;55.788;37.572;2022-09-21T03:10:59;41.60;;;10.90;;
23642;SDS011;11998;55.788;37.572;2022-09-21T03:12:00;36.87;;;10.80;;
23642;SDS011;11998;55.788;37.572;2022-09-21T03:13:01;40.07;;;11.70;;
23642;SDS011;11998;55.788;37.572;2022-09-21T03:14:02;43.60;;;15.10;;
23642;SDS011;11998;55.788;37.572;2022-09-21T03:15:07;52.00;;;16.07;;
23642;SDS011;11998;55.788;37.572;2022-09-21T03:16:09;44.77;;;15.43;;
23642;SDS011;11998;55.788;37.572;2022-09-21T03:17:10;49.87;;;15.00;;
23642;SDS011;11998;55.788;37.572;2022-09-21T03:18:11;41.23;;;13.70;;
23642;SDS011;11998;55.788;37.572;2022-09-21T03:19:12;38.70;;;14.33;;
23642;SDS011;11998;55.788;37.572;2022-09-21T03:20:13;26.67;;;13.97;;
23642;SDS011;11998;55.788;37.572;2022-09-21T03:21:14;28.10;;;13.70;;
23642;SDS011;11998;55.788;37.572;2022-09-21T03:22:14;27.17;;;16.03;;
23642;SDS011;11998;55.788;37.572;2022-09-21T03:23:16;22.65;;;14.00;;
23642;SDS011;11998;55.788;37.572;2022-09-21T03:24:17;23.87;;;14.87;;
23642;SDS011;11998;55.788;37.572;2022-09-21T03:25:37;19.70;;;17.60;;
23642;SDS011;11998;55.788;37.572;2022-09-21T03:26:38;20.20;;;13.90;;
23642;SDS011;11998;55.788;37.572;2022-09-21T03:27:38;20.43;;;14.27;;
23642;SDS011;11998;55.788;37.572;2022-09-21T03:28:40;21.90;;;15.75;;
23642;SDS011;11998;55.788;37.572;2022-09-21T03:29:40;19.23;;;15.73;;
23642;SDS011;11998;55.788;37.572;2022-09-21T03:30:41;19.70;;;14.10;;
23642;SDS011;11998;55.788;37.572;2022-09-21T03:31:42;17.57;;;12.50;;
23642;SDS011;11998;55.788;37.572;2022-09-21T03:32:43;21.40;;;12.37;;
23642;SDS011;11998;55.788;37.572;2022-09-21T03:33:43;15.10;;;13.17;;
23642;SDS011;11998;55.788;37.572;2022-09-21T03:34:44;15.10;;;12.87;;
23642;SDS011;11998;55.788;37.572;2022-09-21T03:35:44;23.80;;;13.43;;
23642;SDS011;11998;55.788;37.572;2022-09-21T03:36:47;19.20;;;13.85;;
23642;SDS011;11998;55.788;37.572;2022-09-21T03:37:48;21.83;;;12.77;;
23642;SDS011;11998;55.788;37.572;2022-09-21T03:38:49;17.87;;;11.90;;
23642;SDS011;11998;55.788;37.572;2022-09-21T03:39:49;16.43;;;12.13;;
23642;SDS011;11998;55.788;37.572;2022-09-21T03:40:50;18.80;;;11.67;;
23642;SDS011;11998;55.788;37.572;2022-09-21T03:41:50;15.83;;;11.60;;
23642;SDS011;11998;55.788;37.572;2022-09-21T03:42:51;13.83;;;10.23;;
23642;SDS011;11998;55.788;37.572;2022-09-21T03:43:53;15.73;;;11.20;;
23642;SDS011;11998;55.788;37.572;2022-09-21T03:44:53;15.80;;;10.63;;
23642;SDS011;11998;55.788;37.572;2022-09-21T03:45:54;12.60;;;10.07;;
23642;SDS011;11998;55.788;37.572;2022-09-21T03:46:54;13.00;;;10.47;;
23642;SDS011;11998;55.788;37.572;2022-09-21T03:47:56;18.60;;;11.60;;
23642;SDS011;11998;55.788;37.572;2022-09-21T03:48:58;15.40;;;10.77;;
23642;SDS011;11998;55.788;37.572;2022-09-21T03:49:58;16.13;;;11.50;;
23642;SDS011;11998;55.788;37.572;2022-09-21T03:50:59;19.43;;;11.73;;
23642;SDS011;11998;55.788;37.572;2022-09-21T03:51:59;18.97;;;13.13;;
23642;SDS011;11998;55.788;37.572;2022-09-21T03:53:00;20.40;;;12.57;;
23642;SDS011;11998;55.788;37.572;2022-09-21T03:54:00;20.07;;;12.60;;
23642;SDS011;11998;55.788;37.572;2022-09-21T03:55:01;17.27;;;12.63;;
23642;SDS011;11998;55.788;37.572;2022-09-21T03:56:04;18.13;;;13.23;;
23642;SDS011;11998;55.788;37.572;2022-09-21T03:57:04;16.33;;;12.37;;
23642;SDS011;11998;55.788;37.572;2022-09-21T03:58:05;18.53;;;12.50;;
23642;SDS011;11998;55.788;37.572;2022-09-21T03:59:05;17.93;;;12.37;;
23642;SDS011;11998;55.788;37.572;2022-09-21T04:00:07;15.60;;;11.97;;
23642;SDS011;11998;55.788;37.572;2022-09-21T04:01:09;14.73;;;11.17;;
23642;SDS011;11998;55.788;37.572;2022-09-21T04:02:09;15.30;;;10.80;;
23642;SDS011;11998;55.788;37.572;2022-09-21T04:03:10;12.90;;;10.77;;
23642;SDS011;11998;55.788;37.572;2022-09-21T04:04:11;11.03;;;9.53;;
23642;SDS011;11998;55.788;37.572;2022-09-21T04:05:12;12.47;;;10.67;;
23642;SDS011;11998;55.788;37.572;2022-09-21T04:06:14;15.20;;;10.73;;
23642;SDS011;11998;55.788;37.572;2022-09-21T04:07:15;17.77;;;10.77;;
23642;SDS011;11998;55.788;37.572;2022-09-21T04:08:15;17.33;;;12.50;;
23642;SDS011;11998;55.788;37.572;2022-09-21T04:09:16;13.93;;;11.90;;
23642;SDS011;11998;55.788;37.572;2022-09-21T04:10:17;13.23;;;11.00;;
23642;SDS011;11998;55.788;37.572;2022-09-21T04:11:21;16.30;;;11.83;;
23642;SDS011;11998;55.788;37.572;2022-09-21T04:12:22;13.47;;;11.83;;
23642;SDS011;11998;55.788;37.572;2022-09-21T04:13:23;14.53;;;12.93;;
23642;SDS011;11998;55.788;37.572;2022-09-21T04:14:23;16.40;;;14.00;;
23642;SDS011;11998;55.788;37.572;2022-09-21T04:15:24;15.33;;;13.77;;
23642;SDS011;11998;55.788;37.572;2022-09-21T04:16:24;14.83;;;13.33;;
23642;SDS011;11998;55.788;37.572;2022-09-21T04:17:26;13.67;;;11.97;;
23642;SDS011;11998;55.788;37.572;2022-09-21T04:18:27;15.53;;;12.70;;
23642;SDS011;11998;55.788;37.572;2022-09-21T04:19:27;16.80;;;13.40;;
23642;SDS011;11998;55.788;37.572;2022-09-21T04:20:28;17.70;;;13.87;;
23642;SDS011;11998;55.788;37.572;2022-09-21T04:21:28;17.03;;;15.23;;
23642;SDS011;11998;55.788;37.572;2022-09-21T04:22:29;18.20;;;16.30;;
23642;SDS011;11998;55.788;37.572;2022-09-21T04:23:30;19.07;;;15.00;;
23642;SDS011;11998;55.788;37.572;2022-09-21T04:24:31;17.10;;;15.10;;
23642;SDS011;11998;55.788;37.572;2022-09-21T04:25:31;18.63;;;14.87;;
23642;SDS011;11998;55.788;37.572;2022-09-21T04:26:33;16.17;;;14.43;;
23642;SDS011;11998;55.788;37.572;2022-09-21T04:27:34;17.10;;;14.73;;
23642;SDS011;11998;55.788;37.572;2022-09-21T04:28:35;16.97;;;14.97;;
23642;SDS011;11998;55.788;37.572;2022-09-21T04:29:35;17.57;;;15.57;;
23642;SDS011;11998;55.788;37.572;2022-09-21T04:30:37;17.20;;;15.37;;
23642;SDS011;11998;55.788;37.572;2022-09-21T04:31:37;15.80;;;13.60;;
23642;SDS011;11998;55.788;37.572;2022-09-21T04:32:38;16.23;;;14.10;;
23642;SDS011;11998;55.788;37.572;2022-09-21T04:33:38;18.63;;;14.77;;
23642;SDS011;11998;55.788;37.572;2022-09-21T04:34:40;16.63;;;13.30;;
23642;SDS011;11998;55.788;37.572;2022-09-21T04:35:41;15.33;;;12.30;;
23642;SDS011;11998;55.788;37.572;2022-09-21T04:36:41;14.87;;;12.57;;
23642;SDS011;11998;55.788;37.572;2022-09-21T04:37:42;16.50;;;13.50;;
23642;SDS011;11998;55.788;37.572;2022-09-21T04:38:43;15.00;;;13.37;;
23642;SDS011;11998;55.788;37.572;2022-09-21T04:39:44;18.03;;;14.80;;
23642;SDS011;11998;55.788;37.572;2022-09-21T04:40:44;16.60;;;14.80;;
23642;SDS011;11998;55.788;37.572;2022-09-21T04:41:54;22.90;;;17.37;;
23642;SDS011;11998;55.788;37.572;2022-09-21T04:42:54;17.47;;;15.40;;
23642;SDS011;11998;55.788;37.572;2022-09-21T04:43:54;18.03;;;16.13;;
23642;SDS011;11998;55.788;37.572;2022-09-21T04:44:55;18.53;;;16.57;;
23642;SDS011;11998;55.788;37.572;2022-09-21T04:45:55;19.17;;;15.57;;
23642;SDS011;11998;55.788;37.572;2022-09-21T04:46:56;20.20;;;17.47;;
23642;SDS011;11998;55.788;37.572;2022-09-21T04:47:57;19.40;;;16.03;;
23642;SDS011;11998;55.788;37.572;2022-09-21T04:48:58;20.80;;;17.20;;
23642;SDS011;11998;55.788;37.572;2022-09-21T04:49:58;17.60;;;14.97;;
23642;SDS011;11998;55.788;37.572;2022-09-21T04:50:59;16.67;;;14.43;;
23642;SDS011;11998;55.788;37.572;2022-09-21T04:51:59;20.13;;;14.13;;
23642;SDS011;11998;55.788;37.572;2022-09-21T04:53:00;18.60;;;14.27;;
23642;SDS011;11998;55.788;37.572;2022-09-21T04:54:01;18.07;;;15.17;;
23642;SDS011;11998;55.788;37.572;2022-09-21T04:55:02;18.33;;;14.63;;
23642;SDS011;11998;55.788;37.572;2022-09-21T04:56:03;16.40;;;13.97;;
23642;SDS011;11998;55.788;37.572;2022-09-21T04:57:05;18.23;;;15.70;;
23642;SDS011;11998;55.788;37.572;2022-09-21T04:58:05;17.00;;;15.30;;
23642;SDS011;11998;55.788;37.572;2022-09-21T04:59:06;17.00;;;15.10;;
23642;SDS011;11998;55.788;37.572;2022-09-21T05:00:06;19.00;;;14.73;;
23642;SDS011;11998;55.788;37.572;2022-09-21T05:01:07;18.70;;;14.50;;
23642;SDS011;11998;55.788;37.572;2022-09-21T05:02:08;18.50;;;13.93;;
23642;SDS011;11998;55.788;37.572;2022-09-21T05:03:09;16.80;;;13.13;;
23642;SDS011;11998;55.788;37.572;2022-09-21T05:04:09;18.53;;;15.13;;
23642;SDS011;11998;55.788;37.572;2022-09-21T05:05:10;20.50;;;14.10;;
23642;SDS011;11998;55.788;37.572;2022-09-21T05:06:10;17.43;;;13.27;;
23642;SDS011;11998;55.788;37.572;2022-09-21T05:07:12;15.40;;;12.43;;
23642;SDS011;11998;55.788;37.572;2022-09-21T05:08:13;15.30;;;12.47;;
23642;SDS011;11998;55.788;37.572;2022-09-21T05:09:13;16.17;;;12.43;;
23642;SDS011;11998;55.788;37.572;2022-09-21T05:10:32;17.40;;;13.00;;
23642;SDS011;11998;55.788;37.572;2022-09-21T05:11:33;14.80;;;12.73;;
23642;SDS011;11998;55.788;37.572;2022-09-21T05:12:33;19.30;;;13.33;;
23642;SDS011;11998;55.788;37.572;2022-09-21T05:13:35;17.50;;;13.48;;
23642;SDS011;11998;55.788;37.572;2022-09-21T05:14:35;16.57;;;13.00;;
23642;SDS011;11998;55.788;37.572;2022-09-21T05:15:36;14.93;;;12.03;;
23642;SDS011;11998;55.788;37.572;2022-09-21T05:16:38;14.20;;;11.77;;
23642;SDS011;11998;55.788;37.572;2022-09-21T05:17:39;19.10;;;13.07;;
23642;SDS011;11998;55.788;37.572;2022-09-21T05:18:40;15.90;;;12.80;;
23642;SDS011;11998;55.788;37.572;2022-09-21T05:19:41;13.50;;;11.77;;
23642;SDS011;11998;55.788;37.572;2022-09-21T05:20:41;15.17;;;12.47;;
23642;SDS011;11998;55.788;37.572;2022-09-21T05:21:41;20.03;;;12.93;;
23642;SDS011;11998;55.788;37.572;2022-09-21T05:22:42;14.10;;;12.10;;
23642;SDS011;11998;55.788;37.572;2022-09-21T05:23:42;18.17;;;12.87;;
23642;SDS011;11998;55.788;37.572;2022-09-21T05:24:43;16.70;;;12.50;;
23642;SDS011;11998;55.788;37.572;2022-09-21T05:25:43;13.17;;;10.90;;
23642;SDS011;11998;55.788;37.572;2022-09-21T05:26:44;12.93;;;9.97;;
23642;SDS011;11998;55.788;37.572;2022-09-21T05:27:44;13.10;;;11.23;;
23642;SDS011;11998;55.788;37.572;2022-09-21T05:28:45;15.30;;;10.70;;
23642;SDS011;11998;55.788;37.572;2022-09-21T05:29:46;11.43;;;10.13;;
23642;SDS011;11998;55.788;37.572;2022-09-21T05:30:57;12.63;;;10.07;;
23642;SDS011;11998;55.788;37.572;2022-09-21T05:32:24;15.00;;;10.20;;
23642;SDS011;11998;55.788;37.572;2022-09-21T05:33:33;12.37;;;8.87;;
23642;SDS011;11998;55.788;37.572;2022-09-21T05:34:49;12.70;;;10.07;;
23642;SDS011;11998;55.788;37.572;2022-09-21T05:36:05;12.77;;;9.70;;
23642;SDS011;11998;55.788;37.572;2022-09-21T05:38:43;12.43;;;9.63;;
23642;SDS011;11998;55.788;37.572;2022-09-21T05:39:45;11.07;;;9.03;;
23642;SDS011;11998;55.788;37.572;2022-09-21T05:40:45;11.57;;;9.57;;
23642;SDS011;11998;55.788;37.572;2022-09-21T05:41:46;12.87;;;9.27;;
23642;SDS011;11998;55.788;37.572;2022-09-21T05:42:47;11.50;;;9.57;;
23642;SDS011;11998;55.788;37.572;2022-09-21T05:43:48;9.10;;;8.20;;
23642;SDS011;11998;55.788;37.572;2022-09-21T05:44:49;12.47;;;9.00;;
23642;SDS011;11998;55.788;37.572;2022-09-21T05:45:51;13.70;;;9.20;;
23642;SDS011;11998;55.788;37.572;2022-09-21T05:47:03;11.17;;;8.20;;
23642;SDS011;11998;55.788;37.572;2022-09-21T05:48:30;12.33;;;8.53;;
23642;SDS011;11998;55.788;37.572;2022-09-21T05:49:44;10.65;;;8.60;;
23642;SDS011;11998;55.788;37.572;2022-09-21T05:51:21;10.83;;;7.97;;
23642;SDS011;11998;55.788;37.572;2022-09-21T05:52:37;12.23;;;7.53;;
23642;SDS011;11998;55.788;37.572;2022-09-21T05:54:57;9.07;;;7.67;;
23642;SDS011;11998;55.788;37.572;2022-09-21T05:56:10;10.27;;;7.23;;
23642;SDS011;11998;55.788;37.572;2022-09-21T05:57:36;8.23;;;6.87;;
23642;SDS011;11998;55.788;37.572;2022-09-21T05:59:06;12.17;;;8.03;;
23642;SDS011;11998;55.788;37.572;2022-09-21T06:00:18;9.47;;;7.67;;
23642;SDS011;11998;55.788;37.572;2022-09-21T06:04:27;9.57;;;7.60;;
23642;SDS011;11998;55.788;37.572;2022-09-21T06:05:28;8.93;;;7.63;;
23642;SDS011;11998;55.788;37.572;2022-09-21T06:06:29;8.03;;;7.33;;
23642;SDS011;11998;55.788;37.572;2022-09-21T06:07:29;10.07;;;7.90;;
23642;SDS011;11998;55.788;37.572;2022-09-21T06:08:30;12.30;;;8.53;;
23642;SDS011;11998;55.788;37.572;2022-09-21T06:09:30;11.13;;;7.93;;
23642;SDS011;11998;55.788;37.572;2022-09-21T06:10:31;16.13;;;8.30;;
23642;SDS011;11998;55.788;37.572;2022-09-21T06:11:33;11.77;;;8.07;;
23642;SDS011;11998;55.788;37.572;2022-09-21T06:12:34;12.90;;;8.57;;
23642;SDS011;11998;55.788;37.572;2022-09-21T06:13:35;10.30;;;7.80;;
23642;SDS011;11998;55.788;37.572;2022-09-21T06:14:36;10.73;;;7.77;;
23642;SDS011;11998;55.788;37.572;2022-09-21T06:15:37;13.07;;;8.00;;
23642;SDS011;11998;55.788;37.572;2022-09-21T06:16:38;11.80;;;8.23;;
23642;SDS011;11998;55.788;37.572;2022-09-21T06:17:39;8.00;;;7.10;;
23642;SDS011;11998;55.788;37.572;2022-09-21T06:18:40;8.90;;;7.57;;
23642;SDS011;11998;55.788;37.572;2022-09-21T06:19:41;9.30;;;7.23;;
23642;SDS011;11998;55.788;37.572;2022-09-21T06:20:41;8.80;;;7.90;;
23642;SDS011;11998;55.788;37.572;2022-09-21T06:21:42;10.10;;;7.63;;
23642;SDS011;11998;55.788;37.572;2022-09-21T06:22:42;8.93;;;7.40;;
23642;SDS011;11998;55.788;37.572;2022-09-21T06:23:43;10.70;;;7.57;;
23642;SDS011;11998;55.788;37.572;2022-09-21T06:24:43;9.97;;;7.83;;
23642;SDS011;11998;55.788;37.572;2022-09-21T06:25:49;10.63;;;7.73;;
23642;SDS011;11998;55.788;37.572;2022-09-21T06:26:51;8.93;;;7.70;;
23642;SDS011;11998;55.788;37.572;2022-09-21T06:27:51;12.53;;;8.17;;
23642;SDS011;11998;55.788;37.572;2022-09-21T06:28:52;10.03;;;9.03;;
23642;SDS011;11998;55.788;37.572;2022-09-21T06:29:53;8.70;;;7.80;;
23642;SDS011;11998;55.788;37.572;2022-09-21T06:30:54;11.17;;;8.37;;
23642;SDS011;11998;55.788;37.572;2022-09-21T06:31:55;11.13;;;7.83;;
23642;SDS011;11998;55.788;37.572;2022-09-21T06:32:57;10.27;;;8.20;;
23642;SDS011;11998;55.788;37.572;2022-09-21T06:33:59;10.27;;;8.07;;
23642;SDS011;11998;55.788;37.572;2022-09-21T06:35:00;11.27;;;7.83;;
23642;SDS011;11998;55.788;37.572;2022-09-21T06:36:00;9.00;;;7.77;;
23642;SDS011;11998;55.788;37.572;2022-09-21T06:37:01;10.83;;;8.60;;
23642;SDS011;11998;55.788;37.572;2022-09-21T06:38:04;9.23;;;8.23;;
23642;SDS011;11998;55.788;37.572;2022-09-21T06:39:06;9.63;;;7.30;;
23642;SDS011;11998;55.788;37.572;2022-09-21T06:40:06;8.57;;;7.67;;
23642;SDS011;11998;55.788;37.572;2022-09-21T06:41:07;8.50;;;7.70;;